sensor_id;sensor_type;location;lat;lon;timestamp;pressure;altitude;pressure_sealevel;temperature;humidity
74637;BME280;63141;54.616;39.754;2023-03-01T00:02:13;99171.78;;;23.17;26.98
74637;BME280;63141;54.616;39.754;2023-03-01T00:05:15;99178.06;;;23.16;27.18
74637;BME280;63141;54.616;39.754;2023-03-01T00:08:19;99176.25;;;23.16;27.03
74637;BME280;63141;54.616;39.754;2023-03-01T00:11:26;99175.41;;;23.16;27.05
74637;BME280;63141;54.616;39.754;2023-03-01T00:14:27;99171.97;;;23.14;27.04
74637;BME280;63141;54.616;39.754;2023-03-01T00:17:28;99177.28;;;23.14;27.10
74637;BME280;63141;54.616;39.754;2023-03-01T00:20:30;99180.88;;;23.13;27.02
74637;BME280;63141;54.616;39.754;2023-03-01T00:23:33;99186.09;;;23.14;27.02
74637;BME280;63141;54.616;39.754;2023-03-01T00:26:35;99183.53;;;23.13;27.06
74637;BME280;63141;54.616;39.754;2023-03-01T00:29:36;99185.34;;;23.12;27.10
74637;BME280;63141;54.616;39.754;2023-03-01T00:32:38;99182.69;;;23.12;27.10
74637;BME280;63141;54.616;39.754;2023-03-01T00:35:39;99180.09;;;23.11;26.93
74637;BME280;63141;54.616;39.754;2023-03-01T00:38:45;99177.44;;;23.11;27.26
74637;BME280;63141;54.616;39.754;2023-03-01T00:41:46;99186.38;;;23.10;27.11
74637;BME280;63141;54.616;39.754;2023-03-01T00:44:48;99183.72;;;23.10;27.11
74637;BME280;63141;54.616;39.754;2023-03-01T00:47:50;99183.72;;;23.10;27.17
74637;BME280;63141;54.616;39.754;2023-03-01T00:50:52;99178.50;;;23.08;27.11
74637;BME280;63141;54.616;39.754;2023-03-01T00:53:55;99174.03;;;23.09;27.12
74637;BME280;63141;54.616;39.754;2023-03-01T00:56:57;99170.44;;;23.10;27.14
74637;BME280;63141;54.616;39.754;2023-03-01T00:59:59;99168.72;;;23.09;27.24
74637;BME280;63141;54.616;39.754;2023-03-01T01:03:00;99174.91;;;23.09;26.88
74637;BME280;63141;54.616;39.754;2023-03-01T01:06:16;99172.34;;;23.08;27.26
74637;BME280;63141;54.616;39.754;2023-03-01T01:09:18;99164.38;;;23.08;27.07
74637;BME280;63141;54.616;39.754;2023-03-01T01:12:19;99172.34;;;23.08;27.26
74637;BME280;63141;54.616;39.754;2023-03-01T01:15:20;99163.41;;;23.09;27.19
74637;BME280;63141;54.616;39.754;2023-03-01T01:18:22;99162.56;;;23.08;27.31
74637;BME280;63141;54.616;39.754;2023-03-01T01:21:24;99165.31;;;23.07;27.29
74637;BME280;63141;54.616;39.754;2023-03-01T01:24:25;99175.94;;;23.07;27.14
74637;BME280;63141;54.616;39.754;2023-03-01T01:27:27;99172.34;;;23.08;27.18
74637;BME280;63141;54.616;39.754;2023-03-01T01:30:31;99170.63;;;23.07;27.31
74637;BME280;63141;54.616;39.754;2023-03-01T01:33:33;99180.28;;;23.08;27.18
74637;BME280;63141;54.616;39.754;2023-03-01T01:36:38;99173.28;;;23.07;27.29
74637;BME280;63141;54.616;39.754;2023-03-01T01:39:39;99166.25;;;23.06;27.22
74637;BME280;63141;54.616;39.754;2023-03-01T01:42:41;99165.31;;;23.07;27.32
74637;BME280;63141;54.616;39.754;2023-03-01T01:45:42;99171.47;;;23.07;27.33
74637;BME280;63141;54.616;39.754;2023-03-01T01:48:47;99167.09;;;23.06;27.24
74637;BME280;63141;54.616;39.754;2023-03-01T01:51:52;99167.22;;;23.05;27.45
74637;BME280;63141;54.616;39.754;2023-03-01T01:54:59;99165.31;;;23.07;27.18
74637;BME280;63141;54.616;39.754;2023-03-01T01:58:04;99168.91;;;23.06;27.36
74637;BME280;63141;54.616;39.754;2023-03-01T02:01:07;99175.06;;;23.06;27.42
74637;BME280;63141;54.616;39.754;2023-03-01T02:04:14;99168.91;;;23.06;27.42
74637;BME280;63141;54.616;39.754;2023-03-01T02:07:19;99171.56;;;23.06;27.47
74637;BME280;63141;54.616;39.754;2023-03-01T02:10:22;99172.53;;;23.05;27.38
74637;BME280;63141;54.616;39.754;2023-03-01T02:13:24;99177.84;;;23.05;27.38
74637;BME280;63141;54.616;39.754;2023-03-01T02:16:26;99173.38;;;23.05;27.66
74637;BME280;63141;54.616;39.754;2023-03-01T02:19:42;99176.97;;;23.04;27.38
74637;BME280;63141;54.616;39.754;2023-03-01T02:22:46;99180.50;;;23.05;27.35
74637;BME280;63141;54.616;39.754;2023-03-01T02:26:05;99174.22;;;23.06;27.49
74637;BME280;63141;54.616;39.754;2023-03-01T02:29:09;99170.78;;;23.04;27.45
74637;BME280;63141;54.616;39.754;2023-03-01T02:32:11;99166.34;;;23.04;27.33
74637;BME280;63141;54.616;39.754;2023-03-01T02:35:15;99165.47;;;23.04;27.49
74637;BME280;63141;54.616;39.754;2023-03-01T02:38:17;99169.94;;;23.03;27.48
74637;BME280;63141;54.616;39.754;2023-03-01T02:41:19;99169.94;;;23.03;27.83
74637;BME280;63141;54.616;39.754;2023-03-01T02:44:22;99177.84;;;23.05;27.61
74637;BME280;63141;54.616;39.754;2023-03-01T02:47:24;99176.09;;;23.04;27.74
74637;BME280;63141;54.616;39.754;2023-03-01T02:56:47;99182.38;;;23.03;27.42
74637;BME280;63141;54.616;39.754;2023-03-01T02:59:52;99176.09;;;23.04;27.67
74637;BME280;63141;54.616;39.754;2023-03-01T03:02:54;99173.56;;;23.02;27.63
74637;BME280;63141;54.616;39.754;2023-03-01T03:06:01;99177.91;;;23.03;27.41
74637;BME280;63141;54.616;39.754;2023-03-01T03:09:04;99171.75;;;23.03;27.43
74637;BME280;63141;54.616;39.754;2023-03-01T03:12:06;99172.69;;;23.02;27.46
74637;BME280;63141;54.616;39.754;2023-03-01T03:15:09;99167.38;;;23.02;27.30
74637;BME280;63141;54.616;39.754;2023-03-01T03:18:16;99174.41;;;23.03;27.41
74637;BME280;63141;54.616;39.754;2023-03-01T03:21:17;99163.78;;;23.03;27.35
74637;BME280;63141;54.616;39.754;2023-03-01T03:24:19;99161.13;;;23.03;27.15
74637;BME280;63141;54.616;39.754;2023-03-01T03:27:20;99178.00;;;23.02;27.24
74637;BME280;63141;54.616;39.754;2023-03-01T03:30:23;99169.25;;;22.99;27.18
74637;BME280;63141;54.616;39.754;2023-03-01T03:33:25;99168.41;;;22.99;27.27
74637;BME280;63141;54.616;39.754;2023-03-01T03:36:26;99165.91;;;22.96;27.02
74637;BME280;63141;54.616;39.754;2023-03-01T03:39:28;99167.72;;;22.95;27.11
74637;BME280;63141;54.616;39.754;2023-03-01T03:42:29;99178.34;;;22.95;26.92
74637;BME280;63141;54.616;39.754;2023-03-01T03:45:31;99174.72;;;22.96;26.86
74637;BME280;63141;54.616;39.754;2023-03-01T03:48:45;99180.03;;;22.96;26.90
74637;BME280;63141;54.616;39.754;2023-03-01T03:51:46;99171.13;;;22.97;26.81
74637;BME280;63141;54.616;39.754;2023-03-01T03:54:47;99171.13;;;22.97;26.88
74637;BME280;63141;54.616;39.754;2023-03-01T03:57:49;99178.94;;;23.00;26.69
74637;BME280;63141;54.616;39.754;2023-03-01T04:00:56;99173.63;;;23.00;26.67
74637;BME280;63141;54.616;39.754;2023-03-01T04:04:04;99171.00;;;23.00;26.70
74637;BME280;63141;54.616;39.754;2023-03-01T04:07:05;99168.34;;;23.00;26.44
74637;BME280;63141;54.616;39.754;2023-03-01T04:10:09;99172.84;;;22.98;26.45
74637;BME280;63141;54.616;39.754;2023-03-01T04:13:15;99162.31;;;22.97;26.76
74637;BME280;63141;54.616;39.754;2023-03-01T04:16:18;99168.56;;;22.96;26.71
74637;BME280;63141;54.616;39.754;2023-03-01T04:19:19;99173.97;;;22.94;26.73
74637;BME280;63141;54.616;39.754;2023-03-01T04:22:20;99175.75;;;22.94;26.67
74637;BME280;63141;54.616;39.754;2023-03-01T04:25:21;99172.25;;;22.93;26.67
74637;BME280;63141;54.616;39.754;2023-03-01T04:28:30;99174.03;;;22.93;26.51
74637;BME280;63141;54.616;39.754;2023-03-01T04:31:31;99189.13;;;22.92;26.61
74637;BME280;63141;54.616;39.754;2023-03-01T04:34:33;99181.16;;;22.92;26.33
74637;BME280;63141;54.616;39.754;2023-03-01T04:37:35;99189.13;;;22.92;26.45
74637;BME280;63141;54.616;39.754;2023-03-01T04:40:37;99182.13;;;22.91;26.54
74637;BME280;63141;54.616;39.754;2023-03-01T04:43:38;99186.56;;;22.91;26.30
74637;BME280;63141;54.616;39.754;2023-03-01T04:46:40;99187.44;;;22.91;26.27
74637;BME280;63141;54.616;39.754;2023-03-01T04:49:41;99185.69;;;22.90;26.24
74637;BME280;63141;54.616;39.754;2023-03-01T04:52:46;99191.00;;;22.90;26.21
74637;BME280;63141;54.616;39.754;2023-03-01T04:55:48;99186.47;;;22.92;26.24
74637;BME280;63141;54.616;39.754;2023-03-01T04:58:49;99200.69;;;22.91;26.23
74637;BME280;63141;54.616;39.754;2023-03-01T05:01:55;99203.34;;;22.91;26.26
74637;BME280;63141;54.616;39.754;2023-03-01T05:05:04;99197.09;;;22.92;26.18
74637;BME280;63141;54.616;39.754;2023-03-01T05:08:07;99206.78;;;22.93;26.14
74637;BME280;63141;54.616;39.754;2023-03-01T05:11:10;99212.09;;;22.93;26.32
74637;BME280;63141;54.616;39.754;2023-03-01T05:14:11;99213.78;;;22.94;26.31
74637;BME280;63141;54.616;39.754;2023-03-01T05:17:13;99210.22;;;22.95;26.06
74637;BME280;63141;54.616;39.754;2023-03-01T05:20:14;99216.38;;;22.96;26.17
74637;BME280;63141;54.616;39.754;2023-03-01T05:23:15;99211.91;;;22.96;26.26
74637;BME280;63141;54.616;39.754;2023-03-01T05:26:18;99222.53;;;22.96;26.09
74637;BME280;63141;54.616;39.754;2023-03-01T05:29:22;99218.91;;;22.97;26.25
74637;BME280;63141;54.616;39.754;2023-03-01T05:32:26;99222.44;;;22.98;26.17
74637;BME280;63141;54.616;39.754;2023-03-01T05:35:27;99229.53;;;22.97;26.15
74637;BME280;63141;54.616;39.754;2023-03-01T05:38:30;99229.53;;;22.97;26.15
74637;BME280;63141;54.616;39.754;2023-03-01T05:41:32;99228.69;;;22.97;26.24
74637;BME280;63141;54.616;39.754;2023-03-01T05:44:33;99230.50;;;22.96;26.17
74637;BME280;63141;54.616;39.754;2023-03-01T05:47:35;99234.84;;;22.97;26.03
74637;BME280;63141;54.616;39.754;2023-03-01T05:50:39;99234.84;;;22.97;26.30
74637;BME280;63141;54.616;39.754;2023-03-01T05:53:41;99241.88;;;22.98;26.05
74637;BME280;63141;54.616;39.754;2023-03-01T05:56:43;99244.53;;;22.98;26.16
74637;BME280;63141;54.616;39.754;2023-03-01T05:59:45;99235.66;;;22.99;26.08
74637;BME280;63141;54.616;39.754;2023-03-01T06:02:46;99236.41;;;23.02;26.00
74637;BME280;63141;54.616;39.754;2023-03-01T06:05:57;99242.50;;;23.04;26.03
74637;BME280;63141;54.616;39.754;2023-03-01T06:08:59;99234.44;;;23.05;25.83
74637;BME280;63141;54.616;39.754;2023-03-01T06:12:00;99237.09;;;23.05;25.92
74637;BME280;63141;54.616;39.754;2023-03-01T06:15:02;99241.38;;;23.08;25.59
74637;BME280;63141;54.616;39.754;2023-03-01T06:18:05;99236.91;;;23.08;25.91
74637;BME280;63141;54.616;39.754;2023-03-01T06:21:07;99238.66;;;23.09;25.85
74637;BME280;63141;54.616;39.754;2023-03-01T06:24:09;99244.81;;;23.10;25.65
74637;BME280;63141;54.616;39.754;2023-03-01T06:27:10;99254.41;;;23.12;25.67
74637;BME280;63141;54.616;39.754;2023-03-01T06:30:13;99247.28;;;23.13;25.65
74637;BME280;63141;54.616;39.754;2023-03-01T06:33:15;99254.22;;;23.15;25.69
74637;BME280;63141;54.616;39.754;2023-03-01T06:36:16;99256.78;;;23.17;25.71
74637;BME280;63141;54.616;39.754;2023-03-01T06:39:19;99251.47;;;23.17;25.66
74637;BME280;63141;54.616;39.754;2023-03-01T06:42:20;99258.47;;;23.18;25.52
74637;BME280;63141;54.616;39.754;2023-03-01T06:45:22;99261.13;;;23.18;25.77
74637;BME280;63141;54.616;39.754;2023-03-01T06:48:23;99265.53;;;23.19;25.60
74637;BME280;63141;54.616;39.754;2023-03-01T06:51:25;99269.03;;;23.19;25.56
74637;BME280;63141;54.616;39.754;2023-03-01T06:54:26;99265.53;;;23.19;25.53
74637;BME280;63141;54.616;39.754;2023-03-01T06:57:28;99260.22;;;23.19;25.63
74637;BME280;63141;54.616;39.754;2023-03-01T07:00:30;99255.75;;;23.19;25.56
74637;BME280;63141;54.616;39.754;2023-03-01T07:03:36;99261.91;;;23.20;25.61
74637;BME280;63141;54.616;39.754;2023-03-01T07:06:37;99265.44;;;23.20;25.64
74637;BME280;63141;54.616;39.754;2023-03-01T07:09:39;99271.59;;;23.21;25.71
74637;BME280;63141;54.616;39.754;2023-03-01T07:12:40;99262.78;;;23.20;25.52
74637;BME280;63141;54.616;39.754;2023-03-01T07:15:42;99268.94;;;23.21;25.46
74637;BME280;63141;54.616;39.754;2023-03-01T07:18:43;99277.84;;;23.20;25.57
74637;BME280;63141;54.616;39.754;2023-03-01T07:21:44;99277.84;;;23.20;25.38
74637;BME280;63141;54.616;39.754;2023-03-01T07:24:46;99276.16;;;23.19;25.65
74637;BME280;63141;54.616;39.754;2023-03-01T07:27:51;99275.31;;;23.18;25.52
74637;BME280;63141;54.616;39.754;2023-03-01T07:30:53;99286.78;;;23.19;25.57
74637;BME280;63141;54.616;39.754;2023-03-01T07:33:55;99287.69;;;23.18;25.53
74637;BME280;63141;54.616;39.754;2023-03-01T07:36:57;99277.19;;;23.16;25.45
74637;BME280;63141;54.616;39.754;2023-03-01T07:39:58;99292.16;;;23.17;25.57
74637;BME280;63141;54.616;39.754;2023-03-01T07:42:59;99299.28;;;23.17;25.57
74637;BME280;63141;54.616;39.754;2023-03-01T07:46:03;99300.13;;;23.17;25.44
74637;BME280;63141;54.616;39.754;2023-03-01T07:49:04;99300.91;;;23.19;25.33
74637;BME280;63141;54.616;39.754;2023-03-01T07:52:06;99308.03;;;23.19;25.33
74637;BME280;63141;54.616;39.754;2023-03-01T07:55:08;99304.41;;;23.20;25.44
74637;BME280;63141;54.616;39.754;2023-03-01T07:58:09;99308.81;;;23.21;25.51
74637;BME280;63141;54.616;39.754;2023-03-01T08:01:13;99314.13;;;23.21;25.49
74637;BME280;63141;54.616;39.754;2023-03-01T08:04:19;99307.00;;;23.21;25.44
74637;BME280;63141;54.616;39.754;2023-03-01T08:07:21;99314.00;;;23.23;25.49
74637;BME280;63141;54.616;39.754;2023-03-01T08:10:22;99314.88;;;23.23;25.45
74637;BME280;63141;54.616;39.754;2023-03-01T08:13:23;99317.53;;;23.23;25.47
74637;BME280;63141;54.616;39.754;2023-03-01T08:16:25;99319.25;;;23.24;25.57
74637;BME280;63141;54.616;39.754;2023-03-01T08:19:26;99321.03;;;23.24;25.40
74637;BME280;63141;54.616;39.754;2023-03-01T08:22:29;99315.72;;;23.24;25.30
74637;BME280;63141;54.616;39.754;2023-03-01T08:25:30;99317.44;;;23.25;25.35
74637;BME280;63141;54.616;39.754;2023-03-01T08:28:32;99327.22;;;23.24;25.24
74637;BME280;63141;54.616;39.754;2023-03-01T08:31:39;99322.75;;;23.25;25.28
74637;BME280;63141;54.616;39.754;2023-03-01T08:34:40;99323.69;;;23.24;25.45
74637;BME280;63141;54.616;39.754;2023-03-01T08:37:42;99327.22;;;23.24;25.37
74637;BME280;63141;54.616;39.754;2023-03-01T08:40:43;99327.22;;;23.24;25.41
74637;BME280;63141;54.616;39.754;2023-03-01T08:43:44;99323.78;;;23.22;25.31
74637;BME280;63141;54.616;39.754;2023-03-01T08:46:47;99330.06;;;23.21;25.38
74637;BME280;63141;54.616;39.754;2023-03-01T08:49:50;99334.41;;;23.22;25.36
74637;BME280;63141;54.616;39.754;2023-03-01T08:52:51;99337.16;;;23.20;25.42
74637;BME280;63141;54.616;39.754;2023-03-01T08:55:52;99344.25;;;23.20;25.33
74637;BME280;63141;54.616;39.754;2023-03-01T08:58:54;99346.91;;;23.20;25.44
74637;BME280;63141;54.616;39.754;2023-03-01T09:01:55;99338.09;;;23.19;25.39
74637;BME280;63141;54.616;39.754;2023-03-01T09:05:02;99344.25;;;23.20;25.31
74637;BME280;63141;54.616;39.754;2023-03-01T09:08:03;99343.41;;;23.19;25.42
74637;BME280;63141;54.616;39.754;2023-03-01T09:11:06;99340.75;;;23.19;25.36
74637;BME280;63141;54.616;39.754;2023-03-01T09:14:07;99339.91;;;23.19;25.32
74637;BME280;63141;54.616;39.754;2023-03-01T09:17:09;99340.84;;;23.18;25.34
74637;BME280;63141;54.616;39.754;2023-03-01T09:20:10;99332.84;;;23.18;25.24
74637;BME280;63141;54.616;39.754;2023-03-01T09:23:12;99343.50;;;23.18;25.46
74637;BME280;63141;54.616;39.754;2023-03-01T09:26:16;99344.38;;;23.18;25.40
74637;BME280;63141;54.616;39.754;2023-03-01T09:29:20;99344.38;;;23.18;25.30
74637;BME280;63141;54.616;39.754;2023-03-01T09:32:21;99342.63;;;23.17;25.26
74637;BME280;63141;54.616;39.754;2023-03-01T09:35:23;99355.06;;;23.17;25.16
74637;BME280;63141;54.616;39.754;2023-03-01T09:38:25;99352.41;;;23.17;25.20
74637;BME280;63141;54.616;39.754;2023-03-01T09:41:43;99340.94;;;23.16;25.29
74637;BME280;63141;54.616;39.754;2023-03-01T09:45:03;99340.94;;;23.16;25.17
74637;BME280;63141;54.616;39.754;2023-03-01T09:48:14;99342.63;;;23.17;25.17
74637;BME280;63141;54.616;39.754;2023-03-01T09:51:30;99340.09;;;23.16;25.27
74637;BME280;63141;54.616;39.754;2023-03-01T09:54:32;99356.03;;;23.16;25.26
74637;BME280;63141;54.616;39.754;2023-03-01T09:57:43;99352.50;;;23.15;25.17
74637;BME280;63141;54.616;39.754;2023-03-01T10:00:49;99351.63;;;23.15;25.17
74637;BME280;63141;54.616;39.754;2023-03-01T10:04:19;99358.69;;;23.16;25.16
74637;BME280;63141;54.616;39.754;2023-03-01T10:10:58;99365.69;;;23.17;25.10
74637;BME280;63141;54.616;39.754;2023-03-01T10:17:24;99353.38;;;23.16;25.16
74637;BME280;63141;54.616;39.754;2023-03-01T10:20:37;99347.09;;;23.17;25.19
74637;BME280;63141;54.616;39.754;2023-03-01T10:23:43;99359.59;;;23.15;25.21
74637;BME280;63141;54.616;39.754;2023-03-01T10:26:50;99370.56;;;23.09;24.81
74637;BME280;63141;54.616;39.754;2023-03-01T10:30:14;99369.53;;;22.95;23.99
74637;BME280;63141;54.616;39.754;2023-03-01T10:37:01;99376.47;;;22.82;23.39
74637;BME280;63141;54.616;39.754;2023-03-01T10:40:10;99363.75;;;22.71;22.79
74637;BME280;63141;54.616;39.754;2023-03-01T10:43:12;99372.94;;;22.66;22.71
74637;BME280;63141;54.616;39.754;2023-03-01T10:46:45;99364.19;;;22.64;22.26
74637;BME280;63141;54.616;39.754;2023-03-01T10:50:05;99374.16;;;22.58;21.69
74637;BME280;63141;54.616;39.754;2023-03-01T10:53:37;99367.66;;;22.48;21.58
74637;BME280;63141;54.616;39.754;2023-03-01T10:56:50;99366.34;;;22.40;21.20
74637;BME280;63141;54.616;39.754;2023-03-01T11:00:15;99369.41;;;22.32;21.03
74637;BME280;63141;54.616;39.754;2023-03-01T11:03:38;99361.94;;;22.23;20.79
74637;BME280;63141;54.616;39.754;2023-03-01T11:06:58;99367.84;;;22.10;20.62
74637;BME280;63141;54.616;39.754;2023-03-01T11:10:16;99376.38;;;22.00;20.35
74637;BME280;63141;54.616;39.754;2023-03-01T11:13:19;99369.75;;;21.91;20.41
74637;BME280;63141;54.616;39.754;2023-03-01T11:16:27;99364.84;;;21.83;20.09
74637;BME280;63141;54.616;39.754;2023-03-01T11:19:29;99367.84;;;21.75;20.02
74637;BME280;63141;54.616;39.754;2023-03-01T11:22:32;99368.94;;;21.71;20.00
74637;BME280;63141;54.616;39.754;2023-03-01T11:25:37;99385.00;;;21.68;19.95
74637;BME280;63141;54.616;39.754;2023-03-01T11:28:40;99379.88;;;21.65;19.77
74637;BME280;63141;54.616;39.754;2023-03-01T11:31:45;99383.59;;;21.61;19.59
74637;BME280;63141;54.616;39.754;2023-03-01T11:34:49;99385.63;;;21.56;19.79
74637;BME280;63141;54.616;39.754;2023-03-01T11:41:10;99375.94;;;21.55;19.52
74637;BME280;63141;54.616;39.754;2023-03-01T11:44:21;99393.19;;;21.46;19.64
74637;BME280;63141;54.616;39.754;2023-03-01T11:50:47;99400.41;;;21.24;19.56
74637;BME280;63141;54.616;39.754;2023-03-01T11:56:55;99398.41;;;21.10;19.15
74637;BME280;63141;54.616;39.754;2023-03-01T12:10:47;99410.03;;;21.07;18.79
74637;BME280;63141;54.616;39.754;2023-03-01T12:17:11;99425.03;;;21.07;18.99
74637;BME280;63141;54.616;39.754;2023-03-01T12:33:36;99427.75;;;21.05;18.82
74637;BME280;63141;54.616;39.754;2023-03-01T12:40:27;99432.75;;;20.92;18.85
74637;BME280;63141;54.616;39.754;2023-03-01T12:50:14;99432.41;;;20.61;18.78
74637;BME280;63141;54.616;39.754;2023-03-01T12:53:32;99443.94;;;20.60;18.49
74637;BME280;63141;54.616;39.754;2023-03-01T12:56:36;99426.34;;;20.59;18.84
74637;BME280;63141;54.616;39.754;2023-03-01T13:06:58;99440.31;;;20.81;19.10
74637;BME280;63141;54.616;39.754;2023-03-01T13:13:30;99425.13;;;20.66;19.39
74637;BME280;63141;54.616;39.754;2023-03-01T13:19:33;99435.47;;;20.91;19.45
74637;BME280;63141;54.616;39.754;2023-03-01T13:22:36;99435.91;;;21.01;19.25
74637;BME280;63141;54.616;39.754;2023-03-01T13:29:01;99435.72;;;21.05;19.14
74637;BME280;63141;54.616;39.754;2023-03-01T13:32:02;99431.97;;;21.09;19.18
74637;BME280;63141;54.616;39.754;2023-03-01T13:38:44;99417.59;;;21.15;19.19
74637;BME280;63141;54.616;39.754;2023-03-01T13:41:50;99416.66;;;21.16;19.22
74637;BME280;63141;54.616;39.754;2023-03-01T13:44:52;99414.00;;;21.16;18.99
74637;BME280;63141;54.616;39.754;2023-03-01T13:47:57;99422.72;;;21.18;19.01
74637;BME280;63141;54.616;39.754;2023-03-01T13:51:05;99420.88;;;21.20;19.30
74637;BME280;63141;54.616;39.754;2023-03-01T13:54:12;99423.47;;;21.22;19.42
74637;BME280;63141;54.616;39.754;2023-03-01T13:57:23;99425.03;;;21.26;19.73
74637;BME280;63141;54.616;39.754;2023-03-01T14:00:36;99422.00;;;21.33;19.85
74637;BME280;63141;54.616;39.754;2023-03-01T14:03:42;99416.44;;;21.40;19.77
74637;BME280;63141;54.616;39.754;2023-03-01T14:06:45;99419.66;;;21.46;19.85
74637;BME280;63141;54.616;39.754;2023-03-01T14:09:52;99422.00;;;21.52;19.82
74637;BME280;63141;54.616;39.754;2023-03-01T14:13:18;99429.59;;;21.60;19.87
74637;BME280;63141;54.616;39.754;2023-03-01T14:19:55;99429.06;;;21.71;20.11
74637;BME280;63141;54.616;39.754;2023-03-01T14:22:59;99427.97;;;21.75;20.40
74637;BME280;63141;54.616;39.754;2023-03-01T14:26:02;99431.34;;;21.79;20.43
74637;BME280;63141;54.616;39.754;2023-03-01T14:29:04;99430.22;;;21.83;20.53
74637;BME280;63141;54.616;39.754;2023-03-01T14:32:20;99427.44;;;21.86;20.55
74637;BME280;63141;54.616;39.754;2023-03-01T14:35:28;99430.78;;;21.89;20.65
74637;BME280;63141;54.616;39.754;2023-03-01T14:41:35;99426.97;;;21.95;20.65
74637;BME280;63141;54.616;39.754;2023-03-01T14:44:36;99424.16;;;21.98;20.82
74637;BME280;63141;54.616;39.754;2023-03-01T14:47:38;99431.19;;;21.99;20.89
74637;BME280;63141;54.616;39.754;2023-03-01T14:50:41;99434.59;;;22.01;21.18
74637;BME280;63141;54.616;39.754;2023-03-01T14:53:44;99445.06;;;22.04;21.01
74637;BME280;63141;54.616;39.754;2023-03-01T14:56:47;99437.03;;;22.06;21.04
74637;BME280;63141;54.616;39.754;2023-03-01T14:59:49;99434.31;;;22.07;21.22
74637;BME280;63141;54.616;39.754;2023-03-01T15:02:55;99444.75;;;22.10;21.19
74637;BME280;63141;54.616;39.754;2023-03-01T15:06:03;99442.03;;;22.12;21.37
74637;BME280;63141;54.616;39.754;2023-03-01T15:09:06;99449.91;;;22.13;21.41
74637;BME280;63141;54.616;39.754;2023-03-01T15:18:31;99456.69;;;22.19;21.40
74637;BME280;63141;54.616;39.754;2023-03-01T15:21:34;99456.63;;;22.21;21.70
74637;BME280;63141;54.616;39.754;2023-03-01T15:24:36;99462.75;;;22.23;21.79
74637;BME280;63141;54.616;39.754;2023-03-01T15:27:45;99464.44;;;22.24;21.73
74637;BME280;63141;54.616;39.754;2023-03-01T15:30:53;99459.91;;;22.26;21.87
74637;BME280;63141;54.616;39.754;2023-03-01T15:34:25;99460.78;;;22.26;21.87
74637;BME280;63141;54.616;39.754;2023-03-01T15:37:40;99466.97;;;22.27;21.86
74637;BME280;63141;54.616;39.754;2023-03-01T15:40:49;99462.44;;;22.29;21.93
74637;BME280;63141;54.616;39.754;2023-03-01T15:43:51;99448.28;;;22.28;22.00
74637;BME280;63141;54.616;39.754;2023-03-01T15:46:56;99447.38;;;22.29;22.25
74637;BME280;63141;54.616;39.754;2023-03-01T15:49:59;99460.53;;;22.31;21.99
74637;BME280;63141;54.616;39.754;2023-03-01T15:53:05;99454.31;;;22.32;22.33
74637;BME280;63141;54.616;39.754;2023-03-01T15:56:12;99463.97;;;22.33;22.22
74637;BME280;63141;54.616;39.754;2023-03-01T15:59:13;99461.31;;;22.33;22.38
74637;BME280;63141;54.616;39.754;2023-03-01T16:02:15;99464.75;;;22.35;22.43
74637;BME280;63141;54.616;39.754;2023-03-01T16:05:27;99467.41;;;22.35;22.50
74637;BME280;63141;54.616;39.754;2023-03-01T16:08:28;99466.50;;;22.36;22.38
74637;BME280;63141;54.616;39.754;2023-03-01T16:11:30;99461.19;;;22.36;22.56
74637;BME280;63141;54.616;39.754;2023-03-01T16:14:33;99464.63;;;22.38;22.63
74637;BME280;63141;54.616;39.754;2023-03-01T16:17:34;99464.63;;;22.38;22.58
74637;BME280;63141;54.616;39.754;2023-03-01T16:20:36;99472.47;;;22.40;22.57
74637;BME280;63141;54.616;39.754;2023-03-01T16:23:37;99468.97;;;22.39;22.37
74637;BME280;63141;54.616;39.754;2023-03-01T16:26:38;99464.44;;;22.41;22.65
74637;BME280;63141;54.616;39.754;2023-03-01T16:29:40;99475.91;;;22.42;22.70
74637;BME280;63141;54.616;39.754;2023-03-01T16:32:42;99460.84;;;22.42;22.84
74637;BME280;63141;54.616;39.754;2023-03-01T16:35:44;99472.34;;;22.43;22.81
74637;BME280;63141;54.616;39.754;2023-03-01T16:38:45;99470.53;;;22.43;22.87
74637;BME280;63141;54.616;39.754;2023-03-01T16:41:50;99466.06;;;22.44;22.90
74637;BME280;63141;54.616;39.754;2023-03-01T16:44:55;99471.31;;;22.45;22.87
74637;BME280;63141;54.616;39.754;2023-03-01T16:47:57;99475.69;;;22.46;22.93
74637;BME280;63141;54.616;39.754;2023-03-01T16:50:59;99471.31;;;22.45;22.96
74637;BME280;63141;54.616;39.754;2023-03-01T16:54:01;99472.16;;;22.46;22.97
74637;BME280;63141;54.616;39.754;2023-03-01T16:57:05;99463.13;;;22.50;23.29
74637;BME280;63141;54.616;39.754;2023-03-01T17:00:10;99470.84;;;22.54;23.98
74637;BME280;63141;54.616;39.754;2023-03-01T17:03:13;99466.22;;;22.58;24.49
74637;BME280;63141;54.616;39.754;2023-03-01T17:06:20;99474.88;;;22.62;24.94
74637;BME280;63141;54.616;39.754;2023-03-01T17:09:23;99469.34;;;22.66;25.96
74637;BME280;63141;54.616;39.754;2023-03-01T17:12:24;99476.19;;;22.70;26.86
74637;BME280;63141;54.616;39.754;2023-03-01T17:15:25;99470.78;;;22.72;27.47
74637;BME280;63141;54.616;39.754;2023-03-01T17:18:26;99468.91;;;22.74;27.78
74637;BME280;63141;54.616;39.754;2023-03-01T17:21:28;99475.00;;;22.76;28.30
74637;BME280;63141;54.616;39.754;2023-03-01T17:24:37;99471.44;;;22.77;28.48
74637;BME280;63141;54.616;39.754;2023-03-01T17:27:39;99471.44;;;22.77;27.84
74637;BME280;63141;54.616;39.754;2023-03-01T17:30:42;99472.19;;;22.79;28.03
74637;BME280;63141;54.616;39.754;2023-03-01T17:33:45;99473.91;;;22.80;28.04
74637;BME280;63141;54.616;39.754;2023-03-01T17:36:46;99469.53;;;22.79;28.13
74637;BME280;63141;54.616;39.754;2023-03-01T17:39:50;99471.25;;;22.80;27.91
74637;BME280;63141;54.616;39.754;2023-03-01T17:42:51;99472.03;;;22.82;27.90